createdAt,value
2023-05-16T12:17:04.590Z,97329.13
2023-05-16T12:19:31.828Z,97335.09
2023-05-16T12:21:58.911Z,97335.66
2023-05-16T12:24:31.765Z,97339.38
2023-05-16T12:26:58.927Z,97339.75
2023-05-16T12:29:26.493Z,97342.91
2023-05-16T12:31:53.791Z,97337.69
2023-05-16T12:34:21.761Z,97338.56
2023-05-16T12:36:53.521Z,97339.69
2023-05-16T12:39:21.039Z,97335.44
2023-05-16T12:41:47.803Z,97347.50
2023-05-16T12:44:19.300Z,97351.91
2023-05-16T12:46:50.284Z,97349.19
2023-05-16T12:49:24.028Z,97348.63
2023-05-16T12:51:57.096Z,97356.56
2023-05-16T12:54:23.969Z,97352.44
2023-05-16T12:56:50.957Z,97359.38
2023-05-16T12:59:19.340Z,97356.06
2023-05-16T13:01:46.340Z,97363.69
2023-05-16T13:04:20.485Z,97366.84
2023-05-16T13:06:57.549Z,97354.75
2023-05-16T13:09:28.873Z,97354.16
2023-05-16T13:11:58.055Z,97365.94
2023-05-16T13:14:25.041Z,97368.25
2023-05-16T13:16:51.823Z,97364.47
2023-05-16T13:19:18.753Z,97362.03
2023-05-16T13:21:45.599Z,97355.50
2023-05-16T13:24:12.418Z,97363.78
2023-05-16T13:26:39.480Z,97356.16
2023-05-16T13:29:06.306Z,97365.16
2023-05-16T13:31:33.256Z,97371.16
2023-05-16T13:34:00.085Z,97360.78
2023-05-16T13:36:27.000Z,97370.53
2023-05-16T13:38:54.466Z,97371.00
2023-05-16T13:41:21.972Z,97374.47
2023-05-16T13:43:48.734Z,97382.53
2023-05-16T13:46:15.654Z,97387.69
2023-05-16T13:48:42.597Z,97379.56
2023-05-16T13:51:11.292Z,97387.31
2023-05-16T13:53:39.170Z,97394.53
2023-05-16T13:56:06.377Z,97392.03
2023-05-16T13:58:33.114Z,97393.44
2023-05-16T14:00:59.886Z,97387.34
2023-05-16T14:03:26.785Z,97390.09
2023-05-16T14:05:54.224Z,97397.09
2023-05-16T14:08:21.010Z,97397.16
2023-05-16T14:10:47.766Z,97409.00
2023-05-16T14:13:14.671Z,97413.47
2023-05-16T14:15:41.421Z,97423.41
2023-05-16T14:18:08.403Z,97418.59
2023-05-16T14:20:35.710Z,97419.44
2023-05-16T14:23:02.512Z,97419.16
2023-05-16T14:25:29.837Z,97422.44
2023-05-16T14:27:56.774Z,97426.88
2023-05-16T14:30:23.737Z,97419.09
2023-05-16T14:32:50.767Z,97433.84
2023-05-16T14:35:17.684Z,97442.94
2023-05-16T14:37:44.476Z,97440.13
2023-05-16T14:40:12.368Z,97434.59
2023-05-16T14:42:39.985Z,97448.53
2023-05-16T14:45:07.531Z,97451.91
2023-05-16T14:47:34.398Z,97449.97
2023-05-16T14:50:01.336Z,97457.72
2023-05-16T14:52:28.458Z,97455.25
2023-05-16T14:54:55.212Z,97473.03
2023-05-16T14:57:22.151Z,97460.91
2023-05-16T14:59:49.597Z,97460.56
2023-05-16T15:02:16.596Z,97459.38
2023-05-16T15:04:43.431Z,97457.22
2023-05-16T15:07:10.280Z,97459.50
2023-05-16T15:09:37.183Z,97470.50
2023-05-16T15:12:05.089Z,97475.22
2023-05-16T15:14:31.825Z,97468.16
2023-05-16T15:16:58.591Z,97473.88
2023-05-16T15:19:25.655Z,97476.19
2023-05-16T15:21:52.899Z,97469.59
2023-05-16T15:24:19.881Z,97474.19
2023-05-16T15:26:46.710Z,97476.19
2023-05-16T15:29:13.684Z,97468.97
2023-05-16T15:31:40.487Z,97478.81
2023-05-16T15:34:08.539Z,97473.53
2023-05-16T15:36:35.431Z,97478.72
2023-05-16T15:39:02.235Z,97478.72
2023-05-16T15:41:50.570Z,97482.13
2023-05-16T15:44:15.907Z,97481.78
2023-05-16T15:46:42.755Z,97484.94
2023-05-16T15:49:09.654Z,97477.44
2023-05-16T15:51:36.400Z,97476.19
2023-05-16T15:54:03.273Z,97483.13
2023-05-16T15:56:30.104Z,97480.09
2023-05-16T15:58:57.156Z,97482.88
2023-05-16T16:01:24.153Z,97489.47
2023-05-16T16:03:51.521Z,97486.13
2023-05-16T16:06:18.442Z,97492.66
2023-05-16T16:08:45.397Z,97497.19
2023-05-16T16:11:12.258Z,97496.72
2023-05-16T16:13:39.064Z,97505.13
2023-05-16T16:16:06.673Z,97503.50
2023-05-16T16:18:34.684Z,97504.09
2023-05-16T16:21:01.791Z,97509.47
2023-05-16T16:23:28.686Z,97507.22
2023-05-16T16:25:55.526Z,97514.09
2023-05-16T16:28:22.735Z,97515.56
2023-05-16T16:30:50.400Z,97518.63
2023-05-16T16:33:17.453Z,97527.41
2023-05-16T16:35:44.266Z,97524.88
2023-05-16T16:38:11.754Z,97527.28
2023-05-16T16:40:38.684Z,97530.19
2023-05-16T16:43:06.980Z,97538.50
2023-05-16T16:45:33.836Z,97533.06
2023-05-16T16:48:00.745Z,97541.81
2023-05-16T16:50:27.604Z,97539.06
2023-05-16T16:52:54.752Z,97540.41
2023-05-16T16:55:21.935Z,97540.78
2023-05-16T16:57:48.749Z,97541.53
2023-05-16T17:00:16.419Z,97552.72
2023-05-16T17:02:43.476Z,97556.63
2023-05-16T17:05:10.820Z,97562.41
2023-05-16T17:07:37.740Z,97570.31
2023-05-16T17:10:05.745Z,97576.28
2023-05-16T17:12:34.533Z,97575.19
2023-05-16T17:15:02.289Z,97566.97
2023-05-16T17:17:29.285Z,97578.84
2023-05-16T17:19:56.252Z,97585.16
2023-05-16T17:22:23.051Z,97598.38
2023-05-16T17:24:49.897Z,97598.38
2023-05-16T17:27:16.972Z,97595.63
2023-05-16T17:29:43.806Z,97601.53
2023-05-16T17:32:10.726Z,97611.88
2023-05-16T17:34:37.467Z,97619.56
2023-05-16T17:37:06.358Z,97620.56
2023-05-16T17:39:34.014Z,97620.69
2023-05-16T17:42:00.872Z,97622.19
2023-05-16T17:44:27.672Z,97625.94
2023-05-16T17:46:54.541Z,97622.59
2023-05-16T17:49:21.607Z,97636.66
2023-05-16T17:51:56.480Z,97631.72
2023-05-16T17:54:24.015Z,97636.69
2023-05-16T17:56:51.162Z,97635.59
2023-05-16T17:59:21.082Z,97637.81
2023-05-16T18:01:48.399Z,97641.91
2023-05-16T18:04:15.541Z,97639.31
2023-05-16T18:06:42.469Z,97636.97
2023-05-16T18:09:14.933Z,97646.22
2023-05-16T18:11:42.509Z,97642.88
2023-05-16T18:14:09.425Z,97636.97
2023-05-16T18:16:36.596Z,97654.19
2023-05-16T18:19:04.811Z,97651.69
2023-05-16T18:21:32.180Z,97655.41
2023-05-16T18:23:59.542Z,97640.56
2023-05-16T18:26:27.961Z,97647.56
2023-05-16T18:28:57.894Z,97643.06
2023-05-16T18:31:24.852Z,97642.09
2023-05-16T18:33:52.130Z,97645.13
2023-05-16T18:36:18.926Z,97641.09
2023-05-16T18:38:45.844Z,97644.97
2023-05-16T18:41:12.727Z,97660.09
2023-05-16T18:43:39.585Z,97662.84
2023-05-16T18:46:06.459Z,97664.63
2023-05-16T18:48:34.677Z,97664.75
2023-05-16T18:51:03.040Z,97670.25
2023-05-16T18:53:29.907Z,97664.75
2023-05-16T18:55:56.760Z,97670.78
2023-05-16T18:58:23.553Z,97669.78
2023-05-16T19:00:50.575Z,97668.56
2023-05-16T19:03:17.565Z,97674.56
2023-05-16T19:05:45.090Z,97672.88
2023-05-16T19:08:12.051Z,97674.72
2023-05-16T19:10:41.444Z,97669.50
2023-05-16T19:13:08.793Z,97675.50
2023-05-16T19:15:37.877Z,97681.25
2023-05-16T19:18:06.172Z,97679.28
2023-05-16T19:20:34.851Z,97678.94
2023-05-16T19:23:03.108Z,97687.44
2023-05-16T19:25:30.724Z,97698.63
2023-05-16T19:27:57.589Z,97696.41
2023-05-16T19:30:25.009Z,97702.94
2023-05-16T19:32:51.913Z,97715.69
2023-05-16T19:35:19.460Z,97712.72
2023-05-16T19:37:46.407Z,97713.25
2023-05-16T19:40:15.478Z,97713.75
2023-05-16T19:42:43.935Z,97725.50
2023-05-16T19:45:11.198Z,97730.63
2023-05-16T19:47:38.232Z,97735.78
2023-05-16T19:50:06.753Z,97725.41
2023-05-16T19:52:33.684Z,97732.13
2023-05-16T19:55:00.720Z,97733.69
2023-05-16T19:57:27.778Z,97745.53
2023-05-16T19:59:54.666Z,97745.19
2023-05-16T20:02:24.303Z,97750.06
2023-05-16T20:04:51.736Z,97752.44
2023-05-16T20:07:18.851Z,97746.88
2023-05-16T20:09:45.659Z,97743.81
2023-05-16T20:12:12.715Z,97743.22
2023-05-16T20:14:39.583Z,97743.59
2023-05-16T20:17:06.523Z,97744.88
2023-05-16T20:19:33.585Z,97741.81
2023-05-16T20:22:01.148Z,97745.81
2023-05-16T20:24:27.995Z,97751.25
2023-05-16T20:26:54.759Z,97749.84
2023-05-16T20:29:21.516Z,97753.59
2023-05-16T20:31:48.331Z,97754.81
2023-05-16T20:34:15.163Z,97751.50
2023-05-16T20:36:41.990Z,97748.44
2023-05-16T20:39:08.988Z,97748.63
2023-05-16T20:41:35.818Z,97766.13
2023-05-16T20:44:02.592Z,97760.22
2023-05-16T20:46:29.406Z,97769.91
2023-05-16T20:48:56.293Z,97769.31
2023-05-16T20:51:23.207Z,97770.97
2023-05-16T20:53:50.009Z,97761.03
2023-05-16T20:56:16.821Z,97759.97
2023-05-16T20:58:43.690Z,97768.44
2023-05-16T21:01:10.590Z,97784.47
2023-05-16T21:03:37.474Z,97784.94
2023-05-16T21:06:04.693Z,97790.38
2023-05-16T21:08:31.682Z,97794.72
2023-05-16T21:10:58.619Z,97793.16
2023-05-16T21:13:25.864Z,97789.97
2023-05-16T21:15:52.655Z,97788.44
2023-05-16T21:18:19.472Z,97782.94
2023-05-16T21:20:46.396Z,97790.59
2023-05-16T21:23:13.254Z,97801.50
2023-05-16T21:25:40.980Z,97796.97
2023-05-16T21:28:07.885Z,97801.78
2023-05-16T21:30:34.621Z,97795.34
2023-05-16T21:33:01.828Z,97801.84
2023-05-16T21:35:28.857Z,97800.38
2023-05-16T21:37:55.828Z,97798.94
2023-05-16T21:40:24.978Z,97807.88
2023-05-16T21:42:52.685Z,97801.16
2023-05-16T21:45:19.731Z,97813.50
2023-05-16T21:47:46.917Z,97822.31
2023-05-16T21:50:14.117Z,97826.78
2023-05-16T21:52:41.323Z,97829.50
2023-05-16T21:55:08.739Z,97823.47
2023-05-16T21:57:35.844Z,97833.03
2023-05-16T22:00:09.141Z,97834.09
2023-05-16T22:02:37.380Z,97834.19
2023-05-16T22:05:05.342Z,97837.63
2023-05-16T22:07:32.170Z,97834.28
2023-05-16T22:09:59.475Z,97841.03
2023-05-16T22:12:27.690Z,97841.03
2023-05-16T22:14:54.917Z,97846.84
2023-05-16T22:17:21.783Z,97843.41
2023-05-16T22:19:48.729Z,97836.47
2023-05-16T22:22:15.800Z,97848.59
2023-05-16T22:24:42.562Z,97847.06
2023-05-16T22:27:09.323Z,97844.56
2023-05-16T22:29:38.851Z,97846.31
2023-05-16T22:32:10.182Z,97849.94
2023-05-16T22:34:40.409Z,97846.75
2023-05-16T22:37:08.903Z,97847.78
2023-05-16T22:39:36.168Z,97851.63
2023-05-16T22:42:03.542Z,97846.66
2023-05-16T22:44:30.423Z,97854.75
2023-05-16T22:46:57.245Z,97844.66
2023-05-16T22:49:24.055Z,97853.59
2023-05-16T22:51:50.875Z,97866.78
2023-05-16T22:54:17.775Z,97877.47
2023-05-16T22:56:44.566Z,97873.41
2023-05-16T22:59:11.364Z,97883.06
2023-05-16T23:01:38.256Z,97880.56
2023-05-16T23:04:05.353Z,97883.38
2023-05-16T23:06:32.531Z,97881.91
2023-05-16T23:09:03.942Z,97892.38
2023-05-16T23:11:32.242Z,97898.59
2023-05-16T23:13:59.089Z,97890.19
2023-05-16T23:16:25.970Z,97893.06
2023-05-16T23:18:52.852Z,97896.69
2023-05-16T23:21:19.683Z,97896.91
2023-05-16T23:23:46.680Z,97899.81
2023-05-16T23:26:13.447Z,97906.09
2023-05-16T23:28:40.237Z,97906.63
2023-05-16T23:31:07.335Z,97907.94
2023-05-16T23:33:34.100Z,97918.81
2023-05-16T23:36:00.883Z,97915.84
2023-05-16T23:38:27.724Z,97915.59
2023-05-16T23:40:54.460Z,97921.38
2023-05-16T23:43:21.297Z,97918.22
2023-05-16T23:45:48.123Z,97919.47
2023-05-16T23:48:14.912Z,97919.00
2023-05-16T23:50:41.810Z,97915.88
2023-05-16T23:53:08.633Z,97911.81
2023-05-16T23:55:35.386Z,97911.25
2023-05-16T23:58:02.228Z,97923.75
